Time;durP1;ratioP1;P1;durP2;ratioP2;P2;SDS_P1;SDS_P2;PMS_P1;PMS_P2;Temp;Humidity;BMP_temperature;BMP_pressure;BME280_temperature;BME280_humidity;BME280_pressure;Samples;Min_cycle;Max_cycle;Signal;HPM_P1;HPM_P2
2023/06/24 00:00:33;;;;;;;9.60;8.60;;;16.50;99.90;;;;;;4967986;28;20476;-75
2023/06/24 00:03:02;;;;;;;9.60;8.70;;;16.50;99.90;;;;;;4964547;28;20096;-74
2023/06/24 00:05:28;;;;;;;9.98;9.00;;;16.50;99.90;;;;;;4979094;28;20125;-74
2023/06/24 00:07:56;;;;;;;9.27;8.38;;;16.40;99.90;;;;;;4981000;28;20488;-75
2023/06/24 00:10:23;;;;;;;9.27;8.23;;;16.40;99.90;;;;;;4957070;28;21369;-75
2023/06/24 00:12:48;;;;;;;9.75;8.73;;;16.30;99.90;;;;;;4966993;28;20415;-74
2023/06/24 00:15:14;;;;;;;9.45;8.45;;;16.30;99.90;;;;;;4983558;28;20338;-73
2023/06/24 00:17:41;;;;;;;9.75;8.85;;;16.20;99.90;;;;;;4998242;28;20038;-74
2023/06/24 00:20:09;;;;;;;9.23;8.32;;;16.10;99.90;;;;;;4971593;28;20048;-74
2023/06/24 00:22:36;;;;;;;9.15;8.25;;;16.10;99.90;;;;;;4985954;28;20504;-75
2023/06/24 00:25:05;;;;;;;9.15;8.27;;;16.10;99.90;;;;;;4996530;28;20046;-75
2023/06/24 00:27:30;;;;;;;8.75;7.85;;;16.10;99.90;;;;;;4988237;28;20109;-74
2023/06/24 00:29:59;;;;;;;10.05;9.00;;;16.00;99.90;;;;;;4968606;28;20471;-74
2023/06/24 00:32:25;;;;;;;10.38;9.45;;;16.00;99.90;;;;;;4957771;28;20046;-74
2023/06/24 00:34:51;;;;;;;9.88;8.68;;;16.00;99.90;;;;;;4947446;28;20092;-74
2023/06/24 00:37:16;;;;;;;10.82;8.73;;;15.90;99.90;;;;;;4988337;28;20111;-74
2023/06/24 00:39:46;;;;;;;9.38;8.40;;;15.90;99.90;;;;;;4995355;28;20069;-73
2023/06/24 00:42:12;;;;;;;8.98;8.07;;;15.70;99.90;;;;;;4942329;28;20401;-74
2023/06/24 00:44:39;;;;;;;11.52;8.82;;;15.70;99.90;;;;;;4961232;28;20551;-74
2023/06/24 00:47:05;;;;;;;10.45;9.55;;;15.70;99.90;;;;;;4986123;28;20080;-75
2023/06/24 00:49:31;;;;;;;10.23;9.13;;;15.60;99.90;;;;;;4959147;28;20046;-74
2023/06/24 00:51:57;;;;;;;10.65;9.57;;;15.60;99.90;;;;;;4932657;28;20054;-75
2023/06/24 00:54:31;;;;;;;10.50;9.48;;;15.60;99.90;;;;;;4964299;28;20050;-74
2023/06/24 00:57:00;;;;;;;11.75;10.65;;;15.60;99.90;;;;;;4966052;28;20053;-75
2023/06/24 00:59:31;;;;;;;10.95;9.50;;;15.60;99.90;;;;;;4963078;28;20078;-74
2023/06/24 01:01:57;;;;;;;11.10;10.10;;;15.50;99.90;;;;;;4963867;28;20058;-74
2023/06/24 01:04:24;;;;;;;11.02;9.93;;;15.50;99.90;;;;;;4965380;28;20047;-75
2023/06/24 01:06:50;;;;;;;10.18;8.98;;;15.50;99.90;;;;;;4932602;28;20047;-74
2023/06/24 01:09:16;;;;;;;9.27;8.48;;;15.40;99.90;;;;;;4966504;28;20587;-74
2023/06/24 01:11:42;;;;;;;10.23;9.32;;;15.40;99.90;;;;;;4948050;28;20097;-75
2023/06/24 01:14:08;;;;;;;10.32;9.32;;;15.30;99.90;;;;;;4939271;28;20088;-75
2023/06/24 01:16:58;;;;;;;10.13;9.20;;;15.30;99.90;;;;;;4979780;28;20485;-75
2023/06/24 01:19:33;;;;;;;9.93;8.88;;;15.30;99.90;;;;;;4950809;28;20061;-74
2023/06/24 01:22:11;;;;;;;10.23;9.23;;;15.30;99.90;;;;;;4952392;28;20037;-75
2023/06/24 01:24:37;;;;;;;9.98;9.02;;;15.30;99.90;;;;;;4966545;28;20054;-74
2023/06/24 01:27:14;;;;;;;9.90;8.98;;;15.30;99.90;;;;;;4960179;28;20094;-75
2023/06/24 01:30:07;;;;;;;10.85;9.80;;;15.30;99.90;;;;;;4963723;28;20042;-75
2023/06/24 01:32:38;;;;;;;10.15;9.25;;;15.30;99.90;;;;;;4923405;28;20544;-75
2023/06/24 01:35:15;;;;;;;11.15;10.05;;;15.30;99.90;;;;;;4951046;28;20137;-76
2023/06/24 01:37:45;;;;;;;11.40;10.20;;;15.20;99.90;;;;;;4964305;28;20038;-75
2023/06/24 01:40:40;;;;;;;10.82;9.82;;;15.20;99.90;;;;;;4965852;28;20088;-74
2023/06/24 01:43:11;;;;;;;10.13;9.23;;;15.20;99.90;;;;;;4964747;28;20047;-74
2023/06/24 01:45:44;;;;;;;10.57;9.57;;;15.20;99.90;;;;;;4951703;28;20078;-73
2023/06/24 01:48:22;;;;;;;9.52;8.63;;;15.10;99.90;;;;;;4950706;28;20046;-74
2023/06/24 01:51:04;;;;;;;10.20;9.20;;;15.00;99.90;;;;;;4950323;28;20390;-74
2023/06/24 01:53:34;;;;;;;10.90;9.90;;;15.00;99.90;;;;;;4964633;28;20493;-73
2023/06/24 01:56:01;;;;;;;;;;;15.00;99.90;;;;;;4968431;28;20551;-74
2023/06/24 01:58:33;;;;;;;11.68;10.48;;;15.00;99.90;;;;;;4977041;28;20534;-74
2023/06/24 02:01:01;;;;;;;11.98;10.88;;;14.90;99.90;;;;;;4969333;28;20118;-73
2023/06/24 02:03:28;;;;;;;11.65;10.63;;;15.00;99.90;;;;;;4984026;28;20481;-74
2023/06/24 02:05:56;;;;;;;11.98;10.88;;;15.00;99.90;;;;;;4949179;28;20059;-73
2023/06/24 02:08:23;;;;;;;11.23;10.18;;;15.00;99.90;;;;;;4965994;28;20509;-74
2023/06/24 02:10:51;;;;;;;12.23;10.85;;;15.00;99.90;;;;;;4947819;28;20125;-74
2023/06/24 02:13:18;;;;;;;13.05;11.52;;;14.90;99.90;;;;;;4970853;28;20049;-73
2023/06/24 02:15:49;;;;;;;12.27;11.07;;;15.00;99.90;;;;;;4948765;28;20057;-73
2023/06/24 02:18:17;;;;;;;11.80;10.70;;;15.00;99.90;;;;;;4956822;28;20054;-74
2023/06/24 02:20:44;;;;;;;13.57;12.27;;;15.00;99.90;;;;;;4963173;28;20515;-74
2023/06/24 02:23:13;;;;;;;12.82;11.50;;;15.00;99.90;;;;;;4962702;28;20047;-74
2023/06/24 02:25:39;;;;;;;12.98;11.77;;;15.00;99.90;;;;;;4968785;28;20044;-74
2023/06/24 02:28:06;;;;;;;13.50;12.25;;;15.00;99.90;;;;;;4969262;28;20061;-75
2023/06/24 02:30:37;;;;;;;14.35;12.93;;;15.00;99.90;;;;;;4987643;28;20125;-74
2023/06/24 02:33:03;;;;;;;13.48;12.15;;;15.10;99.90;;;;;;4948858;28;20493;-74
2023/06/24 02:35:29;;;;;;;14.15;12.77;;;15.10;99.90;;;;;;4970531;28;20053;-74
2023/06/24 02:37:55;;;;;;;13.35;12.15;;;15.10;99.90;;;;;;4970321;28;20053;-74
2023/06/24 02:40:21;;;;;;;15.02;13.48;;;15.10;99.90;;;;;;4949910;28;20041;-74
2023/06/24 02:42:50;;;;;;;17.52;15.77;;;15.10;99.90;;;;;;4951017;28;20042;-74
2023/06/24 02:45:16;;;;;;;16.17;14.57;;;15.10;99.90;;;;;;4965598;28;20050;-74
2023/06/24 02:47:45;;;;;;;16.77;15.10;;;15.10;99.90;;;;;;4970169;28;20140;-74
2023/06/24 02:50:12;;;;;;;17.60;15.90;;;15.20;99.90;;;;;;4950569;28;21232;-74
2023/06/24 02:52:38;;;;;;;17.10;15.52;;;15.20;99.90;;;;;;4968830;28;20054;-74
2023/06/24 02:55:05;;;;;;;16.92;15.18;;;15.20;99.90;;;;;;4970896;28;20691;-74
2023/06/24 02:57:39;;;;;;;16.35;14.75;;;15.20;99.90;;;;;;4972278;28;20051;-74
2023/06/24 03:00:08;;;;;;;18.10;16.35;;;15.20;99.90;;;;;;4959111;28;20097;-75
2023/06/24 03:02:35;;;;;;;17.15;15.55;;;15.30;99.90;;;;;;4949854;28;20134;-74
2023/06/24 03:05:01;;;;;;;15.48;13.98;;;15.30;99.90;;;;;;4963156;28;20042;-75
2023/06/24 03:07:28;;;;;;;17.73;16.05;;;15.30;99.90;;;;;;4949714;28;20473;-74
2023/06/24 03:09:54;;;;;;;20.23;18.15;;;15.30;99.90;;;;;;4965676;28;20073;-74
2023/06/24 03:12:19;;;;;;;18.25;16.33;;;15.30;99.90;;;;;;4951450;28;20090;-74
2023/06/24 03:14:45;;;;;;;16.35;14.85;;;15.30;99.90;;;;;;4934657;28;20126;-74
2023/06/24 03:17:11;;;;;;;18.08;15.95;;;15.30;99.90;;;;;;4964246;28;20050;-74
2023/06/24 03:19:37;;;;;;;16.85;15.25;;;15.30;99.90;;;;;;4956129;28;20050;-74
2023/06/24 03:22:06;;;;;;;17.95;16.15;;;15.40;99.90;;;;;;4967397;28;20046;-75
2023/06/24 03:24:31;;;;;;;18.33;15.60;;;15.40;99.90;;;;;;4945900;28;20491;-73
2023/06/24 03:26:57;;;;;;;16.88;15.25;;;15.40;99.90;;;;;;4947046;28;20042;-74
2023/06/24 03:29:23;;;;;;;17.58;15.88;;;15.40;99.90;;;;;;4960206;28;20515;-73
2023/06/24 03:31:50;;;;;;;16.35;14.75;;;15.40;99.90;;;;;;4967056;28;20051;-74
2023/06/24 03:34:16;;;;;;;16.85;15.27;;;15.40;99.90;;;;;;4950015;28;20053;-74
2023/06/24 03:36:42;;;;;;;14.93;13.40;;;15.40;99.90;;;;;;4969849;28;20090;-74
2023/06/24 03:39:08;;;;;;;16.50;14.95;;;15.40;99.90;;;;;;4953359;28;20034;-75
2023/06/24 03:41:34;;;;;;;17.08;15.43;;;15.40;99.90;;;;;;4971054;28;20049;-74
2023/06/24 03:44:00;;;;;;;16.33;14.75;;;15.40;99.90;;;;;;4976217;28;20325;-74
2023/06/24 03:46:26;;;;;;;15.50;14.02;;;15.40;99.90;;;;;;4969268;28;20058;-75
2023/06/24 03:48:52;;;;;;;16.17;14.70;;;15.40;99.90;;;;;;4953618;28;20064;-74
2023/06/24 03:51:18;;;;;;;17.90;16.20;;;15.40;99.90;;;;;;4971536;28;20568;-74
2023/06/24 03:53:43;;;;;;;16.70;15.00;;;15.50;99.90;;;;;;4988440;28;20045;-74
2023/06/24 03:56:09;;;;;;;17.17;15.38;;;15.50;99.90;;;;;;4958922;28;20072;-75
2023/06/24 03:58:35;;;;;;;16.67;15.10;;;15.50;99.90;;;;;;4955843;28;20060;-73
2023/06/24 04:01:04;;;;;;;16.58;14.98;;;15.60;99.90;;;;;;4940074;28;20035;-74
2023/06/24 04:03:39;;;;;;;16.85;15.07;;;15.60;99.90;;;;;;4984940;28;20083;-74
2023/06/24 04:06:04;;;;;;;16.55;15.00;;;15.60;99.90;;;;;;4972613;28;20042;-74
2023/06/24 04:08:30;;;;;;;16.10;14.55;;;15.60;99.90;;;;;;4968882;28;20675;-74
2023/06/24 04:10:59;;;;;;;17.27;15.68;;;15.60;99.90;;;;;;4988717;28;20065;-74
2023/06/24 04:13:28;;;;;;;17.33;15.70;;;15.60;99.90;;;;;;4972057;28;20060;-74
2023/06/24 04:15:54;;;;;;;16.42;14.85;;;15.60;99.90;;;;;;4986310;28;20236;-74
2023/06/24 04:18:20;;;;;;;17.67;15.80;;;15.60;99.90;;;;;;4972619;28;20128;-74
2023/06/24 04:20:55;;;;;;;18.83;16.83;;;15.60;99.90;;;;;;4956232;28;20567;-74
2023/06/24 04:23:20;;;;;;;16.65;15.15;;;15.60;99.90;;;;;;4989859;28;20038;-74
2023/06/24 04:25:46;;;;;;;16.63;15.13;;;15.60;99.90;;;;;;4968578;28;20116;-74
2023/06/24 04:28:12;;;;;;;16.98;15.38;;;15.70;99.90;;;;;;4950958;28;20065;-74
2023/06/24 04:30:38;;;;;;;18.05;16.17;;;15.60;99.90;;;;;;4985157;28;20133;-74
2023/06/24 04:33:04;;;;;;;16.63;15.13;;;15.70;99.90;;;;;;4956948;28;20049;-74
2023/06/24 04:35:31;;;;;;;17.48;15.82;;;15.70;99.90;;;;;;4988894;28;20061;-74
2023/06/24 04:38:00;;;;;;;16.45;14.80;;;15.80;99.90;;;;;;4982781;28;20034;-74
2023/06/24 04:40:32;;;;;;;16.83;15.23;;;15.80;99.90;;;;;;4969040;28;20052;-74
2023/06/24 04:42:58;;;;;;;15.80;14.43;;;15.80;99.90;;;;;;4962122;28;20061;-74
2023/06/24 04:45:24;;;;;;;16.98;15.48;;;15.90;99.90;;;;;;4969464;28;20407;-74
2023/06/24 04:47:49;;;;;;;16.55;15.00;;;16.00;99.90;;;;;;4957566;28;20072;-74
2023/06/24 04:50:15;;;;;;;17.92;16.23;;;16.00;99.90;;;;;;4957434;28;20136;-74
2023/06/24 04:52:41;;;;;;;17.50;15.90;;;16.10;99.90;;;;;;4948666;28;20141;-74
2023/06/24 04:55:07;;;;;;;17.95;16.15;;;16.10;99.90;;;;;;4933687;28;20046;-75
2023/06/24 04:57:34;;;;;;;16.55;14.82;;;16.10;99.90;;;;;;4947193;28;20060;-75
2023/06/24 05:00:00;;;;;;;18.17;16.30;;;16.20;99.90;;;;;;4953071;28;20042;-75
2023/06/24 05:02:26;;;;;;;17.52;15.88;;;16.20;99.90;;;;;;4967318;28;20113;-75
2023/06/24 05:04:52;;;;;;;18.35;16.15;;;16.30;99.90;;;;;;4967325;28;20378;-75
2023/06/24 05:07:19;;;;;;;18.52;16.83;;;16.30;99.90;;;;;;4969586;28;20052;-75
2023/06/24 05:09:48;;;;;;;17.50;15.85;;;16.40;99.90;;;;;;4966536;28;21586;-75
2023/06/24 05:12:14;;;;;;;18.83;16.95;;;16.40;99.90;;;;;;4936226;28;20484;-75
2023/06/24 05:14:40;;;;;;;18.38;16.48;;;16.40;99.90;;;;;;4951977;28;20149;-75
2023/06/24 05:17:06;;;;;;;18.70;16.90;;;16.50;99.90;;;;;;4957289;28;20046;-75
2023/06/24 05:19:32;;;;;;;18.90;17.00;;;16.50;99.90;;;;;;4964278;28;20130;-75
2023/06/24 05:22:01;;;;;;;18.42;16.77;;;16.60;99.90;;;;;;4949147;28;20564;-75
2023/06/24 05:24:26;;;;;;;17.98;16.25;;;16.70;99.90;;;;;;4944436;28;20051;-75
2023/06/24 05:26:52;;;;;;;19.42;17.73;;;16.70;99.90;;;;;;4965248;28;20343;-75
2023/06/24 05:29:18;;;;;;;19.02;17.25;;;16.80;99.90;;;;;;4951828;28;20050;-75
2023/06/24 05:31:44;;;;;;;18.92;17.02;;;16.80;99.90;;;;;;4961408;28;20050;-72
2023/06/24 05:34:10;;;;;;;20.98;18.83;;;16.90;99.90;;;;;;4961201;28;20085;-75
2023/06/24 05:36:39;;;;;;;19.60;17.80;;;17.00;99.90;;;;;;4954155;28;20085;-75
2023/06/24 05:39:07;;;;;;;19.50;17.70;;;17.00;99.90;;;;;;4969103;28;20382;-75
2023/06/24 05:41:34;;;;;;;20.70;18.60;;;17.10;99.90;;;;;;4956371;28;20054;-75
2023/06/24 05:44:04;;;;;;;19.80;18.00;;;17.20;99.90;;;;;;4971118;28;20086;-75
2023/06/24 05:46:30;;;;;;;19.48;17.58;;;17.20;99.90;;;;;;4972403;28;20061;-75
2023/06/24 05:48:56;;;;;;;20.60;18.63;;;17.30;99.90;;;;;;4970465;28;20062;-75
2023/06/24 05:51:22;;;;;;;18.48;16.77;;;17.40;99.90;;;;;;4987260;28;20493;-75
2023/06/24 05:53:48;;;;;;;19.35;17.45;;;17.50;99.90;;;;;;4970436;28;20030;-75
2023/06/24 05:56:14;;;;;;;20.00;18.20;;;17.60;99.90;;;;;;4944349;28;20497;-75
2023/06/24 05:58:40;;;;;;;19.02;17.35;;;17.70;99.90;;;;;;4984982;28;20058;-75
2023/06/24 06:01:08;;;;;;;19.75;17.95;;;17.80;99.90;;;;;;4985767;28;20177;-75
2023/06/24 06:03:34;;;;;;;20.30;18.40;;;17.80;99.90;;;;;;4985648;28;20054;-75
2023/06/24 06:06:00;;;;;;;19.17;17.48;;;17.90;99.90;;;;;;4955226;28;20047;-75
2023/06/24 06:08:26;;;;;;;21.00;18.90;;;18.00;99.90;;;;;;4955459;28;20466;-75
2023/06/24 06:10:52;;;;;;;19.85;17.85;;;18.10;99.90;;;;;;4986514;28;20078;-75
2023/06/24 06:13:17;;;;;;;18.85;17.00;;;18.20;99.90;;;;;;4972543;28;20065;-75
2023/06/24 06:15:43;;;;;;;18.60;16.90;;;18.30;99.90;;;;;;4958370;28;20493;-75
2023/06/24 06:18:09;;;;;;;18.83;16.85;;;18.40;99.90;;;;;;4953869;28;20058;-75
2023/06/24 06:20:35;;;;;;;17.08;15.48;;;18.50;99.90;;;;;;5001813;28;20050;-74
2023/06/24 06:23:01;;;;;;;18.27;16.58;;;18.60;99.90;;;;;;4988943;28;20042;-75
2023/06/24 06:25:27;;;;;;;17.38;15.68;;;18.70;99.90;;;;;;4971771;28;20521;-75
2023/06/24 06:27:53;;;;;;;17.77;16.17;;;18.80;99.90;;;;;;4985539;28;20050;-75
2023/06/24 06:30:18;;;;;;;17.73;16.02;;;18.90;99.90;;;;;;4972922;28;20489;-75
2023/06/24 06:32:44;;;;;;;17.63;15.82;;;19.10;99.90;;;;;;4941239;28;20136;-75
2023/06/24 06:35:10;;;;;;;17.05;15.35;;;19.20;99.90;;;;;;4988893;28;20064;-75
2023/06/24 06:37:35;;;;;;;17.33;15.73;;;19.30;99.90;;;;;;4970542;28;20553;-75
2023/06/24 06:40:05;;;;;;;16.73;15.13;;;19.40;99.90;;;;;;4971272;28;20533;-75
2023/06/24 06:42:30;;;;;;;17.85;15.95;;;19.50;99.90;;;;;;4953356;28;20478;-75
2023/06/24 06:44:56;;;;;;;15.43;14.02;;;19.70;99.90;;;;;;4954661;28;20062;-75
2023/06/24 06:47:22;;;;;;;15.20;13.70;;;19.80;99.90;;;;;;4970011;28;20780;-75
2023/06/24 06:49:48;;;;;;;16.83;15.32;;;19.90;99.90;;;;;;4981459;28;20054;-74
2023/06/24 06:52:14;;;;;;;16.95;15.35;;;20.00;99.90;;;;;;4974984;28;20382;-75
2023/06/24 06:54:40;;;;;;;16.63;15.00;;;20.20;99.90;;;;;;4986608;28;20053;-75
2023/06/24 06:57:06;;;;;;;17.30;15.70;;;20.30;99.90;;;;;;4988690;28;20054;-75
2023/06/24 06:59:38;;;;;;;18.23;16.42;;;20.40;99.90;;;;;;4978676;28;20065;-74
2023/06/24 07:02:04;;;;;;;16.92;15.38;;;20.50;99.90;;;;;;4994428;28;20124;-74
2023/06/24 07:04:33;;;;;;;17.42;15.88;;;20.60;99.90;;;;;;4955132;28;20140;-74
2023/06/24 07:06:59;;;;;;;16.40;14.90;;;20.70;99.90;;;;;;4964597;28;20126;-74
2023/06/24 07:09:24;;;;;;;16.23;14.63;;;20.80;99.90;;;;;;4972828;28;20897;-74
2023/06/24 07:11:50;;;;;;;16.73;15.20;;;21.00;99.90;;;;;;4966365;28;20096;-74
2023/06/24 07:14:16;;;;;;;16.73;15.10;;;21.20;99.90;;;;;;4987530;28;20099;-74
2023/06/24 07:16:42;;;;;;;16.58;14.95;;;21.30;99.90;;;;;;4990216;28;20102;-74
2023/06/24 07:19:10;;;;;;;16.30;14.70;;;21.50;99.90;;;;;;4977684;28;20038;-73
2023/06/24 07:21:36;;;;;;;16.60;15.07;;;21.60;99.90;;;;;;4987265;28;20108;-74
2023/06/24 07:24:02;;;;;;;17.02;15.45;;;21.70;99.90;;;;;;4987539;28;20386;-74
2023/06/24 07:26:30;;;;;;;16.73;15.05;;;21.90;99.90;;;;;;4971554;28;20045;-74
2023/06/24 07:29:00;;;;;;;15.48;13.98;;;22.10;99.90;;;;;;4987002;28;20479;-74
2023/06/24 07:31:26;;;;;;;16.25;14.55;;;22.40;99.90;;;;;;4968238;28;20080;-74
2023/06/24 07:33:52;;;;;;;15.82;14.32;;;22.50;99.90;;;;;;4992901;28;20042;-75
2023/06/24 07:36:18;;;;;;;14.68;13.18;;;22.60;99.90;;;;;;4981098;28;20045;-74
2023/06/24 07:38:44;;;;;;;12.38;11.07;;;22.60;99.90;;;;;;4960415;28;20081;-74
2023/06/24 07:41:10;;;;;;;12.20;10.90;;;22.60;99.90;;;;;;4975480;28;20073;-74
2023/06/24 07:43:36;;;;;;;11.82;10.60;;;22.60;99.90;;;;;;4988131;28;20132;-74
2023/06/24 07:46:02;;;;;;;11.93;10.38;;;22.60;99.90;;;;;;4977354;28;20057;-74
2023/06/24 07:48:28;;;;;;;9.57;8.68;;;22.70;99.90;;;;;;4990123;28;20053;-74
2023/06/24 07:50:54;;;;;;;9.80;8.32;;;22.90;99.90;;;;;;4950030;28;20577;-74
2023/06/24 07:53:20;;;;;;;9.25;8.25;;;23.00;99.90;;;;;;4944136;28;20038;-74
2023/06/24 07:55:45;;;;;;;8.52;7.72;;;23.10;99.90;;;;;;4977776;28;20082;-74
2023/06/24 07:58:11;;;;;;;8.57;7.03;;;23.30;99.90;;;;;;4967147;28;20388;-74
2023/06/24 08:00:37;;;;;;;8.20;6.63;;;23.40;99.90;;;;;;4960047;28;20506;-74
2023/06/24 08:03:04;;;;;;;9.52;7.05;;;23.50;99.90;;;;;;4960664;28;20048;-74
2023/06/24 08:05:29;;;;;;;8.50;5.60;;;23.60;99.90;;;;;;4970014;28;20046;-74
2023/06/24 08:07:55;;;;;;;8.35;6.53;;;23.70;99.90;;;;;;4971527;28;20527;-74
2023/06/24 08:10:21;;;;;;;6.88;6.18;;;23.90;99.90;;;;;;4970017;28;20049;-74
2023/06/24 08:12:47;;;;;;;7.03;5.78;;;24.00;98.90;;;;;;4966777;28;20073;-75
2023/06/24 08:15:13;;;;;;;8.15;5.35;;;24.10;97.70;;;;;;4956622;28;20057;-74
2023/06/24 08:17:39;;;;;;;8.18;6.32;;;24.30;97.90;;;;;;4958066;28;20069;-75
2023/06/24 08:20:05;;;;;;;9.05;6.95;;;24.40;96.70;;;;;;4965177;28;20043;-74
2023/06/24 08:22:31;;;;;;;8.48;6.53;;;24.50;95.70;;;;;;4968186;28;20042;-74
2023/06/24 08:25:00;;;;;;;8.80;7.95;;;24.60;96.10;;;;;;4969149;28;20386;-74
2023/06/24 08:27:25;;;;;;;8.30;7.40;;;24.60;95.30;;;;;;4938328;28;20141;-74
2023/06/24 08:29:51;;;;;;;7.57;6.85;;;24.60;95.50;;;;;;4965654;28;20133;-74
2023/06/24 08:32:17;;;;;;;7.82;6.70;;;24.60;95.70;;;;;;4956408;28;20034;-74
2023/06/24 08:34:43;;;;;;;7.97;5.10;;;24.70;96.30;;;;;;4967824;28;20046;-73
2023/06/24 08:37:09;;;;;;;7.97;6.35;;;24.90;94.70;;;;;;4967473;28;20093;-73
2023/06/24 08:39:35;;;;;;;6.90;6.05;;;25.10;93.20;;;;;;4976351;28;20108;-73
2023/06/24 08:42:00;;;;;;;7.88;4.47;;;25.20;92.00;;;;;;4951796;28;20452;-74
2023/06/24 08:44:26;;;;;;;7.38;5.22;;;25.20;93.10;;;;;;4954512;28;20136;-73
2023/06/24 08:46:52;;;;;;;6.75;5.40;;;25.30;91.90;;;;;;4965789;28;20043;-74
2023/06/24 08:49:21;;;;;;;6.88;4.95;;;25.30;90.70;;;;;;4957131;28;20041;-74
2023/06/24 08:51:53;;;;;;;6.33;4.50;;;25.30;91.10;;;;;;4961034;28;20047;-74
2023/06/24 08:54:24;;;;;;;6.18;4.40;;;25.40;90.00;;;;;;4976795;28;20129;-74
2023/06/24 08:56:50;;;;;;;8.40;4.50;;;25.60;88.00;;;;;;4956296;28;20409;-74
2023/06/24 08:59:19;;;;;;;6.53;4.13;;;25.70;86.50;;;;;;4938104;28;20497;-74
2023/06/24 09:01:46;;;;;;;5.35;3.50;;;25.80;85.20;;;;;;4970443;28;21471;-75
2023/06/24 09:04:12;;;;;;;4.40;2.92;;;25.90;81.70;;;;;;4959855;28;20113;-75
2023/06/24 09:06:38;;;;;;;5.93;3.40;;;25.80;78.20;;;;;;4964672;28;20042;-75
2023/06/24 09:09:04;;;;;;;5.32;3.05;;;25.80;78.80;;;;;;4966265;28;20046;-75
2023/06/24 09:11:32;;;;;;;4.03;3.08;;;25.70;78.70;;;;;;4962075;28;20042;-74
2023/06/24 09:14:01;;;;;;;4.32;3.40;;;25.60;78.50;;;;;;4966466;28;20117;-74
2023/06/24 09:16:28;;;;;;;5.10;3.40;;;25.70;78.70;;;;;;4977430;28;20137;-74
2023/06/24 09:18:54;;;;;;;4.25;3.20;;;25.80;79.80;;;;;;4954482;28;20112;-74
2023/06/24 09:21:27;;;;;;;7.63;3.70;;;25.90;83.20;;;;;;4978410;28;20893;-75
2023/06/24 09:23:57;;;;;;;7.00;3.70;;;26.10;82.40;;;;;;4956808;28;20145;-75
2023/06/24 09:26:29;;;;;;;6.80;3.53;;;26.20;79.60;;;;;;4944284;28;20364;-74
2023/06/24 09:28:57;;;;;;;5.00;3.55;;;26.30;77.40;;;;;;4956720;28;20427;-74
2023/06/24 09:31:23;;;;;;;5.72;3.50;;;26.30;76.40;;;;;;4973521;28;20152;-74
2023/06/24 09:33:49;;;;;;;4.88;3.55;;;26.40;76.90;;;;;;4970528;28;22295;-75
2023/06/24 09:36:16;;;;;;;4.00;3.22;;;26.40;77.90;;;;;;4953368;28;20083;-74
2023/06/24 09:38:45;;;;;;;5.82;3.60;;;26.50;75.70;;;;;;4972482;28;20056;-74
2023/06/24 09:41:12;;;;;;;5.28;3.65;;;26.50;75.80;;;;;;4970945;28;20042;-74
2023/06/24 09:43:39;;;;;;;5.78;3.40;;;26.70;76.20;;;;;;4979584;28;20103;-74
2023/06/24 09:46:06;;;;;;;5.72;3.72;;;26.80;77.10;;;;;;4939865;28;20057;-73
2023/06/24 09:48:35;;;;;;;6.07;3.30;;;26.90;77.60;;;;;;4940522;28;20101;-73
2023/06/24 09:51:03;;;;;;;5.53;3.58;;;27.00;74.90;;;;;;4978688;28;20049;-73
2023/06/24 09:53:35;;;;;;;5.55;3.05;;;27.00;73.40;;;;;;4974052;28;20057;-73
2023/06/24 09:56:03;;;;;;;4.65;3.22;;;27.00;73.70;;;;;;4988054;28;20042;-73
2023/06/24 09:58:35;;;;;;;5.43;3.80;;;27.20;73.70;;;;;;4969479;28;20059;-73
2023/06/24 10:01:05;;;;;;;4.75;3.72;;;27.30;74.10;;;;;;4984972;28;20176;-73
2023/06/24 10:03:34;;;;;;;6.53;3.80;;;27.30;72.10;;;;;;4978583;28;20053;-73
2023/06/24 10:06:06;;;;;;;5.55;4.03;;;27.40;71.60;;;;;;4971600;28;20046;-73
2023/06/24 10:08:33;;;;;;;6.10;3.92;;;27.50;74.60;;;;;;4973156;28;20049;-74
2023/06/24 10:11:00;;;;;;;5.68;3.90;;;27.60;73.60;;;;;;4970294;28;20046;-74
2023/06/24 10:13:26;;;;;;;5.20;3.50;;;27.60;71.00;;;;;;4957365;28;20056;-73
2023/06/24 10:15:52;;;;;;;6.28;3.90;;;27.60;69.50;;;;;;4988435;28;20034;-74
2023/06/24 10:18:35;;;;;;;5.72;3.88;;;27.60;70.60;;;;;;4990049;28;20056;-74
2023/06/24 10:21:08;;;;;;;6.75;3.70;;;27.70;70.60;;;;;;4987610;28;20042;-74
2023/06/24 10:23:55;;;;;;;4.93;3.45;;;27.80;69.70;;;;;;4987324;28;20397;-74
2023/06/24 10:26:35;;;;;;;5.15;3.95;;;27.90;71.40;;;;;;4976635;28;20056;-74
2023/06/24 10:29:07;;;;;;;5.22;3.65;;;28.00;71.90;;;;;;4972086;28;20436;-74
2023/06/24 10:31:52;;;;;;;5.22;3.50;;;28.00;71.10;;;;;;4975374;28;20053;-74
2023/06/24 10:34:24;;;;;;;6.22;3.95;;;28.10;72.20;;;;;;4986733;28;20527;-74
2023/06/24 10:37:03;;;;;;;6.07;3.85;;;28.30;70.00;;;;;;4989423;28;20049;-75
2023/06/24 10:39:50;;;;;;;5.25;3.75;;;28.40;68.20;;;;;;4985108;28;20477;-75
2023/06/24 10:42:26;;;;;;;6.75;4.25;;;28.40;68.50;;;;;;4987038;28;20054;-75
2023/06/24 10:44:53;;;;;;;5.10;4.32;;;28.50;70.70;;;;;;4973320;28;20562;-75
2023/06/24 10:47:19;;;;;;;6.07;4.00;;;28.50;66.90;;;;;;4954832;28;20229;-75
2023/06/24 10:49:48;;;;;;;5.60;4.18;;;28.50;68.60;;;;;;4968714;28;20405;-74
2023/06/24 10:52:18;;;;;;;6.13;3.80;;;28.60;68.20;;;;;;4970014;28;20043;-75
2023/06/24 10:54:43;;;;;;;6.03;3.97;;;28.60;67.70;;;;;;4987786;28;20140;-75
2023/06/24 10:57:11;;;;;;;6.95;3.92;;;28.60;70.60;;;;;;4957324;28;20129;-75
2023/06/24 10:59:41;;;;;;;6.45;4.10;;;28.80;71.80;;;;;;4974011;28;20488;-74
2023/06/24 11:02:14;;;;;;;6.88;4.15;;;29.10;71.10;;;;;;4971783;28;20042;-75
2023/06/24 11:04:50;;;;;;;6.88;3.83;;;29.20;67.80;;;;;;4973754;28;20400;-74
2023/06/24 11:07:18;;;;;;;4.63;3.70;;;29.30;68.70;;;;;;4954331;28;20045;-74
2023/06/24 11:09:50;;;;;;;5.55;3.60;;;29.30;71.10;;;;;;4986442;28;20038;-74
2023/06/24 11:12:17;;;;;;;4.32;3.67;;;29.40;70.20;;;;;;4987734;28;20041;-74
2023/06/24 11:14:43;;;;;;;4.43;3.25;;;29.50;69.20;;;;;;4969267;28;20054;-74
2023/06/24 11:17:09;;;;;;;5.25;3.60;;;29.40;70.50;;;;;;4972114;28;20037;-74
2023/06/24 11:19:39;;;;;;;4.75;3.63;;;29.40;69.90;;;;;;4985284;28;20058;-75
2023/06/24 11:22:06;;;;;;;5.55;4.30;;;29.20;71.20;;;;;;4957106;28;20069;-75
2023/06/24 11:24:36;;;;;;;4.63;3.80;;;29.00;70.80;;;;;;4986192;28;20388;-74
2023/06/24 11:27:02;;;;;;;;;;;28.80;71.60;;;;;;4981710;28;20038;-75
2023/06/24 11:29:35;;;;;;;4.68;3.63;;;28.60;71.70;;;;;;4982007;28;19928;-75
2023/06/24 11:32:09;;;;;;;4.60;3.65;;;28.30;70.50;;;;;;4973294;28;20433;-74
2023/06/24 11:34:36;;;;;;;6.07;4.50;;;28.00;70.40;;;;;;4971493;28;20058;-75
2023/06/24 11:37:15;;;;;;;4.78;3.65;;;27.80;73.70;;;;;;4956108;28;20220;-74
2023/06/24 11:39:41;;;;;;;6.10;3.50;;;27.70;73.90;;;;;;4970111;28;20064;-75
2023/06/24 11:42:08;;;;;;;5.88;3.88;;;27.70;74.70;;;;;;4969571;28;20099;-74
2023/06/24 11:44:35;;;;;;;7.22;3.85;;;27.90;74.10;;;;;;4984447;28;20054;-74
2023/06/24 11:47:08;;;;;;;6.28;4.38;;;28.10;72.30;;;;;;4954587;28;20077;-75
2023/06/24 11:49:55;;;;;;;4.82;3.92;;;28.20;72.80;;;;;;4984120;28;20378;-74
2023/06/24 11:52:43;;;;;;;5.03;3.50;;;28.40;70.80;;;;;;4966607;28;20042;-77
2023/06/24 11:55:27;;;;;;;4.97;3.90;;;28.60;71.90;;;;;;4986483;28;20052;-74
2023/06/24 11:57:58;;;;;;;6.22;4.20;;;28.70;72.40;;;;;;4986611;28;20385;-72
2023/06/24 12:00:27;;;;;;;6.28;4.60;;;28.50;73.40;;;;;;4962714;28;20052;-74
2023/06/24 12:02:58;;;;;;;4.40;3.80;;;28.40;73.50;;;;;;4984676;28;20073;-74
2023/06/24 12:05:28;;;;;;;4.63;3.80;;;28.20;73.70;;;;;;4944034;28;20457;-73
2023/06/24 12:07:59;;;;;;;5.25;4.05;;;28.30;72.50;;;;;;4989353;28;20050;-74
2023/06/24 12:10:28;;;;;;;7.13;4.43;;;28.50;75.60;;;;;;4983520;28;20448;-74
2023/06/24 12:12:58;;;;;;;8.77;4.38;;;28.70;73.70;;;;;;4987236;28;20050;-74
2023/06/24 12:15:27;;;;;;;5.63;4.40;;;28.60;71.40;;;;;;4974586;28;20116;-74
2023/06/24 12:17:53;;;;;;;6.10;4.00;;;28.40;73.50;;;;;;4985911;28;20122;-74
2023/06/24 12:20:19;;;;;;;5.53;4.30;;;28.30;74.20;;;;;;4970375;28;20165;-74
2023/06/24 12:22:48;;;;;;;4.45;3.58;;;28.50;74.40;;;;;;4953833;28;20137;-74
2023/06/24 12:25:16;;;;;;;7.05;4.00;;;28.70;73.90;;;;;;4968542;28;20574;-74
2023/06/24 12:27:43;;;;;;;6.78;4.15;;;28.90;74.80;;;;;;4974576;28;20061;-74
2023/06/24 12:30:09;;;;;;;6.15;4.13;;;29.10;76.80;;;;;;4984229;28;20433;-74
2023/06/24 12:32:36;;;;;;;6.38;4.05;;;29.10;72.10;;;;;;4982020;28;21015;-73
2023/06/24 12:35:03;;;;;;;6.18;4.10;;;29.30;75.00;;;;;;4967985;28;20262;-74
2023/06/24 12:37:33;;;;;;;8.43;3.88;;;29.40;73.80;;;;;;4958653;28;20107;-74
2023/06/24 12:40:03;;;;;;;5.10;3.92;;;29.40;70.80;;;;;;4969207;28;20085;-74
2023/06/24 12:42:29;;;;;;;6.85;3.97;;;29.30;70.30;;;;;;4967545;28;20508;-74